sensor_id;sensor_type;location;lat;lon;timestamp;temperature;humidity
44277;DHT22;29973;43.742;1.236;2024-03-08T00:01:27;9.50;99.90
44277;DHT22;29973;43.742;1.236;2024-03-08T00:04:19;9.50;99.90
44277;DHT22;29973;43.742;1.236;2024-03-08T00:07:22;9.50;99.90
44277;DHT22;29973;43.742;1.236;2024-03-08T00:10:31;9.50;99.90
44277;DHT22;29973;43.742;1.236;2024-03-08T00:13:03;9.70;99.90
44277;DHT22;29973;43.742;1.236;2024-03-08T00:15:40;9.90;99.90
44277;DHT22;29973;43.742;1.236;2024-03-08T00:18:35;9.80;99.90
44277;DHT22;29973;43.742;1.236;2024-03-08T00:21:32;9.90;99.90
44277;DHT22;29973;43.742;1.236;2024-03-08T00:24:22;9.90;99.90
44277;DHT22;29973;43.742;1.236;2024-03-08T00:27:12;9.90;99.90
44277;DHT22;29973;43.742;1.236;2024-03-08T00:29:42;9.80;99.90
44277;DHT22;29973;43.742;1.236;2024-03-08T00:32:22;9.80;99.90
44277;DHT22;29973;43.742;1.236;2024-03-08T00:35:53;9.90;99.90
44277;DHT22;29973;43.742;1.236;2024-03-08T00:38:28;10.00;99.90
44277;DHT22;29973;43.742;1.236;2024-03-08T00:41:27;9.90;99.90
44277;DHT22;29973;43.742;1.236;2024-03-08T00:44:22;10.00;99.90
44277;DHT22;29973;43.742;1.236;2024-03-08T00:47:07;10.10;99.90
44277;DHT22;29973;43.742;1.236;2024-03-08T00:49:33;10.20;99.90
44277;DHT22;29973;43.742;1.236;2024-03-08T00:51:59;10.20;99.90
44277;DHT22;29973;43.742;1.236;2024-03-08T00:54:25;10.10;99.90
44277;DHT22;29973;43.742;1.236;2024-03-08T00:56:51;10.20;99.90
44277;DHT22;29973;43.742;1.236;2024-03-08T00:59:17;10.30;99.90
44277;DHT22;29973;43.742;1.236;2024-03-08T01:01:42;10.20;99.90
44277;DHT22;29973;43.742;1.236;2024-03-08T01:04:09;10.00;99.90
44277;DHT22;29973;43.742;1.236;2024-03-08T01:06:36;10.10;99.90
44277;DHT22;29973;43.742;1.236;2024-03-08T01:09:02;10.10;99.90
44277;DHT22;29973;43.742;1.236;2024-03-08T01:11:28;10.30;99.90
44277;DHT22;29973;43.742;1.236;2024-03-08T01:13:54;10.40;99.90
44277;DHT22;29973;43.742;1.236;2024-03-08T01:16:20;10.30;99.90
44277;DHT22;29973;43.742;1.236;2024-03-08T01:18:47;10.20;99.90
44277;DHT22;29973;43.742;1.236;2024-03-08T01:21:13;10.30;99.90
44277;DHT22;29973;43.742;1.236;2024-03-08T01:23:39;10.20;99.90
44277;DHT22;29973;43.742;1.236;2024-03-08T01:26:04;10.20;99.90
44277;DHT22;29973;43.742;1.236;2024-03-08T01:28:30;10.20;99.90
44277;DHT22;29973;43.742;1.236;2024-03-08T01:30:57;10.20;99.90
44277;DHT22;29973;43.742;1.236;2024-03-08T01:33:24;10.20;99.90
44277;DHT22;29973;43.742;1.236;2024-03-08T01:35:51;10.30;99.90
44277;DHT22;29973;43.742;1.236;2024-03-08T01:38:18;10.10;99.90
44277;DHT22;29973;43.742;1.236;2024-03-08T01:40:44;10.20;99.90
44277;DHT22;29973;43.742;1.236;2024-03-08T01:43:25;10.20;99.90
44277;DHT22;29973;43.742;1.236;2024-03-08T01:45:52;10.10;99.90
44277;DHT22;29973;43.742;1.236;2024-03-08T01:48:19;10.30;99.90
44277;DHT22;29973;43.742;1.236;2024-03-08T01:50:47;10.20;99.90
44277;DHT22;29973;43.742;1.236;2024-03-08T01:53:13;10.20;99.90
44277;DHT22;29973;43.742;1.236;2024-03-08T01:55:41;10.40;99.90
44277;DHT22;29973;43.742;1.236;2024-03-08T01:58:09;10.30;99.90
44277;DHT22;29973;43.742;1.236;2024-03-08T02:00:35;10.20;99.90
44277;DHT22;29973;43.742;1.236;2024-03-08T02:03:02;10.30;99.90
44277;DHT22;29973;43.742;1.236;2024-03-08T02:05:28;10.20;99.90
44277;DHT22;29973;43.742;1.236;2024-03-08T02:07:54;10.30;99.90
44277;DHT22;29973;43.742;1.236;2024-03-08T02:10:20;10.30;99.90
44277;DHT22;29973;43.742;1.236;2024-03-08T02:12:47;10.50;99.90
44277;DHT22;29973;43.742;1.236;2024-03-08T02:15:13;10.40;99.90
44277;DHT22;29973;43.742;1.236;2024-03-08T02:17:40;10.20;99.90
44277;DHT22;29973;43.742;1.236;2024-03-08T02:20:07;10.30;99.90
44277;DHT22;29973;43.742;1.236;2024-03-08T02:22:34;10.10;99.90
44277;DHT22;29973;43.742;1.236;2024-03-08T02:25:02;10.20;99.90
44277;DHT22;29973;43.742;1.236;2024-03-08T02:27:28;10.20;99.90
44277;DHT22;29973;43.742;1.236;2024-03-08T02:29:55;10.40;99.90
44277;DHT22;29973;43.742;1.236;2024-03-08T02:32:24;10.40;99.90
44277;DHT22;29973;43.742;1.236;2024-03-08T02:34:50;10.40;99.90
44277;DHT22;29973;43.742;1.236;2024-03-08T02:37:17;10.40;99.90
44277;DHT22;29973;43.742;1.236;2024-03-08T02:39:43;10.40;99.90
44277;DHT22;29973;43.742;1.236;2024-03-08T02:42:09;10.40;99.90
44277;DHT22;29973;43.742;1.236;2024-03-08T02:44:34;10.40;99.90
44277;DHT22;29973;43.742;1.236;2024-03-08T02:47:00;10.20;99.90
44277;DHT22;29973;43.742;1.236;2024-03-08T02:49:26;10.30;99.90
44277;DHT22;29973;43.742;1.236;2024-03-08T02:54:27;10.60;99.90
44277;DHT22;29973;43.742;1.236;2024-03-08T02:56:53;10.30;99.90
44277;DHT22;29973;43.742;1.236;2024-03-08T02:59:19;10.50;99.90
44277;DHT22;29973;43.742;1.236;2024-03-08T03:01:45;10.20;99.90
44277;DHT22;29973;43.742;1.236;2024-03-08T03:04:11;10.30;99.90
44277;DHT22;29973;43.742;1.236;2024-03-08T03:06:36;10.20;99.90
44277;DHT22;29973;43.742;1.236;2024-03-08T03:09:02;10.20;99.90
44277;DHT22;29973;43.742;1.236;2024-03-08T03:11:31;10.30;99.90
44277;DHT22;29973;43.742;1.236;2024-03-08T03:13:57;10.30;99.90
44277;DHT22;29973;43.742;1.236;2024-03-08T03:16:23;10.30;99.90
44277;DHT22;29973;43.742;1.236;2024-03-08T03:18:49;10.40;99.90
44277;DHT22;29973;43.742;1.236;2024-03-08T03:21:15;10.30;99.90
44277;DHT22;29973;43.742;1.236;2024-03-08T03:23:41;10.50;99.90
44277;DHT22;29973;43.742;1.236;2024-03-08T03:26:09;10.40;99.90
44277;DHT22;29973;43.742;1.236;2024-03-08T03:28:38;10.40;99.90
44277;DHT22;29973;43.742;1.236;2024-03-08T03:31:07;10.40;99.90
44277;DHT22;29973;43.742;1.236;2024-03-08T03:33:33;10.40;99.90
44277;DHT22;29973;43.742;1.236;2024-03-08T03:36:02;10.60;99.90
44277;DHT22;29973;43.742;1.236;2024-03-08T03:38:28;10.50;99.90
44277;DHT22;29973;43.742;1.236;2024-03-08T03:40:54;10.40;99.90
44277;DHT22;29973;43.742;1.236;2024-03-08T03:43:23;10.50;99.90
44277;DHT22;29973;43.742;1.236;2024-03-08T03:45:49;10.50;99.90
44277;DHT22;29973;43.742;1.236;2024-03-08T03:48:14;10.60;99.90
44277;DHT22;29973;43.742;1.236;2024-03-08T03:50:40;10.50;99.90
44277;DHT22;29973;43.742;1.236;2024-03-08T03:53:06;10.40;99.90
44277;DHT22;29973;43.742;1.236;2024-03-08T03:55:35;10.40;99.90
44277;DHT22;29973;43.742;1.236;2024-03-08T03:58:04;10.40;99.90
44277;DHT22;29973;43.742;1.236;2024-03-08T04:00:29;10.50;99.90
44277;DHT22;29973;43.742;1.236;2024-03-08T04:02:55;10.40;99.90
44277;DHT22;29973;43.742;1.236;2024-03-08T04:05:24;10.60;99.90
44277;DHT22;29973;43.742;1.236;2024-03-08T04:07:50;10.40;99.90
44277;DHT22;29973;43.742;1.236;2024-03-08T04:10:16;10.40;99.90
44277;DHT22;29973;43.742;1.236;2024-03-08T04:12:41;10.50;99.90
44277;DHT22;29973;43.742;1.236;2024-03-08T04:15:08;10.30;99.90
44277;DHT22;29973;43.742;1.236;2024-03-08T04:17:34;10.50;99.90
44277;DHT22;29973;43.742;1.236;2024-03-08T04:20:03;10.50;99.90
44277;DHT22;29973;43.742;1.236;2024-03-08T04:22:36;10.40;99.90
44277;DHT22;29973;43.742;1.236;2024-03-08T04:25:03;10.60;99.90
44277;DHT22;29973;43.742;1.236;2024-03-08T04:27:28;10.30;99.90
44277;DHT22;29973;43.742;1.236;2024-03-08T04:29:54;10.40;99.90
44277;DHT22;29973;43.742;1.236;2024-03-08T04:32:20;10.40;99.90
44277;DHT22;29973;43.742;1.236;2024-03-08T04:34:45;10.20;99.90
44277;DHT22;29973;43.742;1.236;2024-03-08T04:37:13;10.20;99.90
44277;DHT22;29973;43.742;1.236;2024-03-08T04:39:39;10.40;99.90
44277;DHT22;29973;43.742;1.236;2024-03-08T04:42:05;10.30;99.90
44277;DHT22;29973;43.742;1.236;2024-03-08T04:44:39;10.40;99.90
44277;DHT22;29973;43.742;1.236;2024-03-08T04:47:05;10.40;99.90
44277;DHT22;29973;43.742;1.236;2024-03-08T04:49:33;10.50;99.90
44277;DHT22;29973;43.742;1.236;2024-03-08T04:52:05;10.50;99.90
44277;DHT22;29973;43.742;1.236;2024-03-08T04:54:32;10.60;99.90
44277;DHT22;29973;43.742;1.236;2024-03-08T04:56:58;10.50;99.90
44277;DHT22;29973;43.742;1.236;2024-03-08T04:59:27;10.50;99.90
44277;DHT22;29973;43.742;1.236;2024-03-08T05:01:53;10.50;99.90
44277;DHT22;29973;43.742;1.236;2024-03-08T05:04:19;10.60;99.90
44277;DHT22;29973;43.742;1.236;2024-03-08T05:06:45;10.50;99.90
44277;DHT22;29973;43.742;1.236;2024-03-08T05:09:10;10.40;99.90
44277;DHT22;29973;43.742;1.236;2024-03-08T05:11:43;10.60;99.90
44277;DHT22;29973;43.742;1.236;2024-03-08T05:14:09;10.60;99.90
44277;DHT22;29973;43.742;1.236;2024-03-08T05:16:35;10.40;99.90
44277;DHT22;29973;43.742;1.236;2024-03-08T05:19:02;10.60;99.90
44277;DHT22;29973;43.742;1.236;2024-03-08T05:21:27;10.60;99.90
44277;DHT22;29973;43.742;1.236;2024-03-08T05:23:54;10.60;99.90
44277;DHT22;29973;43.742;1.236;2024-03-08T05:26:20;10.50;99.90
44277;DHT22;29973;43.742;1.236;2024-03-08T05:28:48;10.40;99.90
44277;DHT22;29973;43.742;1.236;2024-03-08T05:31:20;10.50;99.90
44277;DHT22;29973;43.742;1.236;2024-03-08T05:33:49;10.50;99.90
44277;DHT22;29973;43.742;1.236;2024-03-08T05:36:16;10.50;99.90
44277;DHT22;29973;43.742;1.236;2024-03-08T05:38:44;10.50;99.90
44277;DHT22;29973;43.742;1.236;2024-03-08T05:41:10;10.40;99.90
44277;DHT22;29973;43.742;1.236;2024-03-08T05:43:37;10.60;99.90
44277;DHT22;29973;43.742;1.236;2024-03-08T05:46:04;10.50;99.90
44277;DHT22;29973;43.742;1.236;2024-03-08T05:48:33;10.50;99.90
44277;DHT22;29973;43.742;1.236;2024-03-08T05:51:00;10.50;99.90
44277;DHT22;29973;43.742;1.236;2024-03-08T05:53:25;10.60;99.90
44277;DHT22;29973;43.742;1.236;2024-03-08T05:55:52;10.60;99.90
44277;DHT22;29973;43.742;1.236;2024-03-08T05:58:17;10.50;99.90
44277;DHT22;29973;43.742;1.236;2024-03-08T06:00:43;10.40;99.90
44277;DHT22;29973;43.742;1.236;2024-03-08T06:03:11;10.60;99.90
44277;DHT22;29973;43.742;1.236;2024-03-08T06:05:37;10.60;99.90
44277;DHT22;29973;43.742;1.236;2024-03-08T06:08:06;10.60;99.90
44277;DHT22;29973;43.742;1.236;2024-03-08T06:10:33;10.70;99.90
44277;DHT22;29973;43.742;1.236;2024-03-08T06:12:59;10.70;99.90
44277;DHT22;29973;43.742;1.236;2024-03-08T06:15:25;10.70;99.90
44277;DHT22;29973;43.742;1.236;2024-03-08T06:17:51;10.70;99.90
44277;DHT22;29973;43.742;1.236;2024-03-08T06:20:20;10.80;99.90
44277;DHT22;29973;43.742;1.236;2024-03-08T06:22:45;10.80;99.90
44277;DHT22;29973;43.742;1.236;2024-03-08T06:25:12;10.90;99.90
44277;DHT22;29973;43.742;1.236;2024-03-08T06:27:41;11.00;99.90
44277;DHT22;29973;43.742;1.236;2024-03-08T06:30:08;11.00;99.90
44277;DHT22;29973;43.742;1.236;2024-03-08T06:32:37;10.90;99.90
44277;DHT22;29973;43.742;1.236;2024-03-08T06:35:07;10.80;99.90
44277;DHT22;29973;43.742;1.236;2024-03-08T06:37:33;10.80;99.90
44277;DHT22;29973;43.742;1.236;2024-03-08T06:40:00;11.00;99.90
44277;DHT22;29973;43.742;1.236;2024-03-08T06:42:30;11.00;99.90
44277;DHT22;29973;43.742;1.236;2024-03-08T06:45:01;11.00;99.90
44277;DHT22;29973;43.742;1.236;2024-03-08T06:47:31;10.90;99.90
44277;DHT22;29973;43.742;1.236;2024-03-08T06:49:59;11.00;99.90
44277;DHT22;29973;43.742;1.236;2024-03-08T06:52:25;11.00;99.90
44277;DHT22;29973;43.742;1.236;2024-03-08T06:54:51;11.00;99.90
44277;DHT22;29973;43.742;1.236;2024-03-08T06:57:18;11.20;99.90
44277;DHT22;29973;43.742;1.236;2024-03-08T06:59:47;11.20;99.90
44277;DHT22;29973;43.742;1.236;2024-03-08T07:02:13;11.10;99.90
44277;DHT22;29973;43.742;1.236;2024-03-08T07:04:39;11.20;99.90
44277;DHT22;29973;43.742;1.236;2024-03-08T07:07:05;11.20;99.90
44277;DHT22;29973;43.742;1.236;2024-03-08T07:09:38;11.20;99.90
44277;DHT22;29973;43.742;1.236;2024-03-08T07:12:04;11.10;99.90
44277;DHT22;29973;43.742;1.236;2024-03-08T07:14:29;11.10;99.90
44277;DHT22;29973;43.742;1.236;2024-03-08T07:16:56;11.20;99.90
44277;DHT22;29973;43.742;1.236;2024-03-08T07:19:22;11.20;99.90
44277;DHT22;29973;43.742;1.236;2024-03-08T07:21:49;11.20;99.90
44277;DHT22;29973;43.742;1.236;2024-03-08T07:24:15;11.20;99.90
44277;DHT22;29973;43.742;1.236;2024-03-08T07:26:40;11.10;99.90
44277;DHT22;29973;43.742;1.236;2024-03-08T07:29:06;11.20;99.90
44277;DHT22;29973;43.742;1.236;2024-03-08T07:31:33;11.30;99.90
44277;DHT22;29973;43.742;1.236;2024-03-08T07:34:21;11.20;99.90
44277;DHT22;29973;43.742;1.236;2024-03-08T07:36:47;11.20;99.90
44277;DHT22;29973;43.742;1.236;2024-03-08T07:39:13;11.20;99.90
44277;DHT22;29973;43.742;1.236;2024-03-08T07:41:39;11.30;99.90
44277;DHT22;29973;43.742;1.236;2024-03-08T07:44:07;11.20;99.90
44277;DHT22;29973;43.742;1.236;2024-03-08T07:46:33;11.20;99.90
44277;DHT22;29973;43.742;1.236;2024-03-08T07:48:59;11.10;99.90
44277;DHT22;29973;43.742;1.236;2024-03-08T07:51:25;11.00;99.90
44277;DHT22;29973;43.742;1.236;2024-03-08T07:53:51;10.80;99.90
44277;DHT22;29973;43.742;1.236;2024-03-08T07:56:17;10.80;99.90
44277;DHT22;29973;43.742;1.236;2024-03-08T07:58:44;10.80;99.90
44277;DHT22;29973;43.742;1.236;2024-03-08T08:01:19;10.80;99.90
44277;DHT22;29973;43.742;1.236;2024-03-08T08:03:46;10.70;99.90
44277;DHT22;29973;43.742;1.236;2024-03-08T08:06:15;10.70;99.90
44277;DHT22;29973;43.742;1.236;2024-03-08T08:08:42;10.70;99.90
44277;DHT22;29973;43.742;1.236;2024-03-08T08:11:08;10.60;99.90
44277;DHT22;29973;43.742;1.236;2024-03-08T08:13:34;10.60;99.90
44277;DHT22;29973;43.742;1.236;2024-03-08T08:16:02;10.50;99.90
44277;DHT22;29973;43.742;1.236;2024-03-08T08:18:28;10.60;99.90
44277;DHT22;29973;43.742;1.236;2024-03-08T08:23:30;10.40;99.90
44277;DHT22;29973;43.742;1.236;2024-03-08T08:25:56;10.40;99.90
44277;DHT22;29973;43.742;1.236;2024-03-08T08:28:22;10.10;99.90
44277;DHT22;29973;43.742;1.236;2024-03-08T08:30:47;9.80;99.90
44277;DHT22;29973;43.742;1.236;2024-03-08T08:33:14;9.60;99.90
44277;DHT22;29973;43.742;1.236;2024-03-08T08:35:40;9.30;99.90
44277;DHT22;29973;43.742;1.236;2024-03-08T08:38:06;9.30;99.90
44277;DHT22;29973;43.742;1.236;2024-03-08T08:40:33;9.20;99.90
44277;DHT22;29973;43.742;1.236;2024-03-08T08:42:59;9.50;99.90
44277;DHT22;29973;43.742;1.236;2024-03-08T08:45:25;9.80;99.90
44277;DHT22;29973;43.742;1.236;2024-03-08T08:47:52;10.30;99.90
44277;DHT22;29973;43.742;1.236;2024-03-08T08:50:17;10.20;99.90
44277;DHT22;29973;43.742;1.236;2024-03-08T08:52:49;10.30;99.90
44277;DHT22;29973;43.742;1.236;2024-03-08T08:55:14;10.00;99.90
44277;DHT22;29973;43.742;1.236;2024-03-08T08:57:41;9.90;99.90
44277;DHT22;29973;43.742;1.236;2024-03-08T09:00:07;9.90;99.90
44277;DHT22;29973;43.742;1.236;2024-03-08T09:02:34;10.00;99.90
44277;DHT22;29973;43.742;1.236;2024-03-08T09:05:00;10.10;99.90
44277;DHT22;29973;43.742;1.236;2024-03-08T09:07:26;10.00;99.90
44277;DHT22;29973;43.742;1.236;2024-03-08T09:09:53;9.70;99.90
44277;DHT22;29973;43.742;1.236;2024-03-08T09:12:23;9.30;99.90
44277;DHT22;29973;43.742;1.236;2024-03-08T09:14:48;9.10;99.90
44277;DHT22;29973;43.742;1.236;2024-03-08T09:17:15;8.90;99.90
44277;DHT22;29973;43.742;1.236;2024-03-08T09:19:48;8.80;99.90
44277;DHT22;29973;43.742;1.236;2024-03-08T09:22:14;8.50;99.90
44277;DHT22;29973;43.742;1.236;2024-03-08T09:24:39;8.40;99.90
44277;DHT22;29973;43.742;1.236;2024-03-08T09:27:06;8.30;99.90
44277;DHT22;29973;43.742;1.236;2024-03-08T09:29:31;8.20;99.90
44277;DHT22;29973;43.742;1.236;2024-03-08T09:31:57;8.00;99.90
44277;DHT22;29973;43.742;1.236;2024-03-08T09:34:23;8.10;99.90
44277;DHT22;29973;43.742;1.236;2024-03-08T09:36:49;8.10;99.90
44277;DHT22;29973;43.742;1.236;2024-03-08T09:39:17;8.10;99.90
44277;DHT22;29973;43.742;1.236;2024-03-08T09:41:45;8.00;99.90
44277;DHT22;29973;43.742;1.236;2024-03-08T09:44:17;7.90;99.90
44277;DHT22;29973;43.742;1.236;2024-03-08T09:46:46;8.00;99.90
44277;DHT22;29973;43.742;1.236;2024-03-08T09:49:17;8.00;99.90
44277;DHT22;29973;43.742;1.236;2024-03-08T09:51:42;8.00;99.90
44277;DHT22;29973;43.742;1.236;2024-03-08T09:54:08;8.00;99.90
44277;DHT22;29973;43.742;1.236;2024-03-08T09:56:41;8.20;99.90
44277;DHT22;29973;43.742;1.236;2024-03-08T09:59:10;8.10;99.90
44277;DHT22;29973;43.742;1.236;2024-03-08T10:01:51;8.20;99.90
44277;DHT22;29973;43.742;1.236;2024-03-08T10:04:18;8.20;99.90
44277;DHT22;29973;43.742;1.236;2024-03-08T10:06:45;8.30;99.90
44277;DHT22;29973;43.742;1.236;2024-03-08T10:09:12;8.30;99.90
44277;DHT22;29973;43.742;1.236;2024-03-08T10:11:40;8.40;99.90
44277;DHT22;29973;43.742;1.236;2024-03-08T10:14:08;8.40;99.90
44277;DHT22;29973;43.742;1.236;2024-03-08T10:16:34;8.60;99.90
44277;DHT22;29973;43.742;1.236;2024-03-08T10:19:00;8.70;99.90
44277;DHT22;29973;43.742;1.236;2024-03-08T10:21:26;8.70;99.90
44277;DHT22;29973;43.742;1.236;2024-03-08T10:23:53;8.70;99.90
44277;DHT22;29973;43.742;1.236;2024-03-08T10:26:19;8.80;99.90
44277;DHT22;29973;43.742;1.236;2024-03-08T10:28:48;8.90;99.90
44277;DHT22;29973;43.742;1.236;2024-03-08T10:31:17;8.90;99.90
44277;DHT22;29973;43.742;1.236;2024-03-08T10:33:45;9.10;99.90
44277;DHT22;29973;43.742;1.236;2024-03-08T10:36:13;9.00;99.90
44277;DHT22;29973;43.742;1.236;2024-03-08T10:38:40;8.90;99.90
44277;DHT22;29973;43.742;1.236;2024-03-08T10:41:08;8.80;99.90
44277;DHT22;29973;43.742;1.236;2024-03-08T10:46:26;8.70;99.90
44277;DHT22;29973;43.742;1.236;2024-03-08T10:48:57;8.60;99.90
44277;DHT22;29973;43.742;1.236;2024-03-08T10:51:30;8.60;99.90
44277;DHT22;29973;43.742;1.236;2024-03-08T10:53:57;8.70;99.90
44277;DHT22;29973;43.742;1.236;2024-03-08T10:56:25;8.80;99.90
44277;DHT22;29973;43.742;1.236;2024-03-08T10:58:54;8.90;99.90
44277;DHT22;29973;43.742;1.236;2024-03-08T11:01:20;8.90;99.90
44277;DHT22;29973;43.742;1.236;2024-03-08T11:03:47;9.10;99.90
44277;DHT22;29973;43.742;1.236;2024-03-08T11:06:21;9.00;99.90
44277;DHT22;29973;43.742;1.236;2024-03-08T11:08:49;9.40;99.90
44277;DHT22;29973;43.742;1.236;2024-03-08T11:11:38;9.50;99.90
44277;DHT22;29973;43.742;1.236;2024-03-08T11:14:43;9.90;99.90
44277;DHT22;29973;43.742;1.236;2024-03-08T11:17:09;10.00;99.90
44277;DHT22;29973;43.742;1.236;2024-03-08T11:19:35;10.30;99.90
44277;DHT22;29973;43.742;1.236;2024-03-08T11:22:04;10.70;99.90
44277;DHT22;29973;43.742;1.236;2024-03-08T11:24:37;11.30;99.90
44277;DHT22;29973;43.742;1.236;2024-03-08T11:27:05;11.20;99.90
44277;DHT22;29973;43.742;1.236;2024-03-08T11:29:33;10.60;99.90
44277;DHT22;29973;43.742;1.236;2024-03-08T11:32:16;10.50;99.90
44277;DHT22;29973;43.742;1.236;2024-03-08T11:34:49;11.30;99.90
44277;DHT22;29973;43.742;1.236;2024-03-08T11:37:17;11.40;99.90
44277;DHT22;29973;43.742;1.236;2024-03-08T11:39:51;13.90;99.90
44277;DHT22;29973;43.742;1.236;2024-03-08T11:42:18;16.50;99.90
44277;DHT22;29973;43.742;1.236;2024-03-08T11:44:47;18.20;99.90
44277;DHT22;29973;43.742;1.236;2024-03-08T11:47:14;18.00;99.90
44277;DHT22;29973;43.742;1.236;2024-03-08T11:49:40;17.00;99.90
44277;DHT22;29973;43.742;1.236;2024-03-08T11:52:15;19.30;99.90
44277;DHT22;29973;43.742;1.236;2024-03-08T11:54:41;19.20;99.90
44277;DHT22;29973;43.742;1.236;2024-03-08T11:57:09;17.00;99.90
44277;DHT22;29973;43.742;1.236;2024-03-08T11:59:36;14.10;99.90
44277;DHT22;29973;43.742;1.236;2024-03-08T12:02:04;16.00;99.90
44277;DHT22;29973;43.742;1.236;2024-03-08T12:04:30;18.50;99.90
44277;DHT22;29973;43.742;1.236;2024-03-08T12:06:59;19.60;99.90
44277;DHT22;29973;43.742;1.236;2024-03-08T12:09:29;18.00;99.90
44277;DHT22;29973;43.742;1.236;2024-03-08T12:11:55;19.20;99.90
44277;DHT22;29973;43.742;1.236;2024-03-08T12:14:20;19.70;99.90
44277;DHT22;29973;43.742;1.236;2024-03-08T12:16:51;19.90;99.90
44277;DHT22;29973;43.742;1.236;2024-03-08T12:19:16;20.10;99.90
44277;DHT22;29973;43.742;1.236;2024-03-08T12:21:43;20.80;99.90
44277;DHT22;29973;43.742;1.236;2024-03-08T12:24:16;23.20;76.60
44277;DHT22;29973;43.742;1.236;2024-03-08T12:26:45;23.40;71.20
44277;DHT22;29973;43.742;1.236;2024-03-08T12:29:29;23.90;63.50
44277;DHT22;29973;43.742;1.236;2024-03-08T12:31:59;23.40;64.00
44277;DHT22;29973;43.742;1.236;2024-03-08T12:34:27;23.80;60.30
44277;DHT22;29973;43.742;1.236;2024-03-08T12:36:54;24.70;50.80
44277;DHT22;29973;43.742;1.236;2024-03-08T12:39:21;23.50;60.30
44277;DHT22;29973;43.742;1.236;2024-03-08T12:41:54;22.30;60.40
44277;DHT22;29973;43.742;1.236;2024-03-08T12:44:20;24.00;51.90
44277;DHT22;29973;43.742;1.236;2024-03-08T12:46:48;20.90;59.70
44277;DHT22;29973;43.742;1.236;2024-03-08T12:49:15;21.30;59.90
44277;DHT22;29973;43.742;1.236;2024-03-08T12:51:44;22.40;60.10
44277;DHT22;29973;43.742;1.236;2024-03-08T12:54:10;23.40;52.80
44277;DHT22;29973;43.742;1.236;2024-03-08T12:56:36;23.90;46.70
44277;DHT22;29973;43.742;1.236;2024-03-08T12:59:07;23.50;48.60
44277;DHT22;29973;43.742;1.236;2024-03-08T13:01:34;24.50;48.20
44277;DHT22;29973;43.742;1.236;2024-03-08T13:04:03;25.60;42.40
44277;DHT22;29973;43.742;1.236;2024-03-08T13:06:29;24.90;40.10
44277;DHT22;29973;43.742;1.236;2024-03-08T13:08:56;25.30;43.40
44277;DHT22;29973;43.742;1.236;2024-03-08T13:11:24;24.60;38.80
44277;DHT22;29973;43.742;1.236;2024-03-08T13:13:50;23.30;48.00
44277;DHT22;29973;43.742;1.236;2024-03-08T13:16:16;24.30;43.90
44277;DHT22;29973;43.742;1.236;2024-03-08T13:18:45;24.20;46.20
44277;DHT22;29973;43.742;1.236;2024-03-08T13:21:11;24.00;44.10
44277;DHT22;29973;43.742;1.236;2024-03-08T13:23:41;24.40;43.40
44277;DHT22;29973;43.742;1.236;2024-03-08T13:26:07;24.70;40.20
44277;DHT22;29973;43.742;1.236;2024-03-08T13:28:33;22.90;49.00
44277;DHT22;29973;43.742;1.236;2024-03-08T13:31:05;22.80;49.50
44277;DHT22;29973;43.742;1.236;2024-03-08T13:33:36;22.30;52.00
44277;DHT22;29973;43.742;1.236;2024-03-08T13:36:06;23.80;46.00
44277;DHT22;29973;43.742;1.236;2024-03-08T13:38:35;24.20;46.50
44277;DHT22;29973;43.742;1.236;2024-03-08T13:41:02;22.50;48.00
44277;DHT22;29973;43.742;1.236;2024-03-08T13:43:28;23.90;44.40
44277;DHT22;29973;43.742;1.236;2024-03-08T13:45:57;23.80;43.70
44277;DHT22;29973;43.742;1.236;2024-03-08T13:48:23;22.50;47.20
44277;DHT22;29973;43.742;1.236;2024-03-08T13:50:49;21.40;48.90
44277;DHT22;29973;43.742;1.236;2024-03-08T13:53:17;17.90;58.70
44277;DHT22;29973;43.742;1.236;2024-03-08T13:55:43;15.70;71.50
44277;DHT22;29973;43.742;1.236;2024-03-08T13:58:09;15.00;71.40
44277;DHT22;29973;43.742;1.236;2024-03-08T14:00:36;14.50;75.00
44277;DHT22;29973;43.742;1.236;2024-03-08T14:03:02;14.60;77.90
44277;DHT22;29973;43.742;1.236;2024-03-08T14:05:38;14.50;78.00
44277;DHT22;29973;43.742;1.236;2024-03-08T14:08:06;14.20;76.70
44277;DHT22;29973;43.742;1.236;2024-03-08T14:10:33;14.20;77.90
44277;DHT22;29973;43.742;1.236;2024-03-08T14:13:00;14.10;81.50
44277;DHT22;29973;43.742;1.236;2024-03-08T14:15:26;13.80;80.20
44277;DHT22;29973;43.742;1.236;2024-03-08T14:17:53;13.30;84.10
44277;DHT22;29973;43.742;1.236;2024-03-08T14:20:18;13.10;80.60
44277;DHT22;29973;43.742;1.236;2024-03-08T14:22:44;13.00;85.70
44277;DHT22;29973;43.742;1.236;2024-03-08T14:25:11;12.90;90.10
44277;DHT22;29973;43.742;1.236;2024-03-08T14:27:43;13.00;88.40
44277;DHT22;29973;43.742;1.236;2024-03-08T14:30:10;13.10;88.30
44277;DHT22;29973;43.742;1.236;2024-03-08T14:32:36;13.10;86.80
44277;DHT22;29973;43.742;1.236;2024-03-08T14:35:07;13.10;88.50
44277;DHT22;29973;43.742;1.236;2024-03-08T14:37:33;13.20;88.40
44277;DHT22;29973;43.742;1.236;2024-03-08T14:39:59;13.20;89.70
44277;DHT22;29973;43.742;1.236;2024-03-08T14:42:25;13.40;88.00
44277;DHT22;29973;43.742;1.236;2024-03-08T14:44:51;13.40;87.20
44277;DHT22;29973;43.742;1.236;2024-03-08T14:47:19;13.80;85.70
44277;DHT22;29973;43.742;1.236;2024-03-08T14:49:45;14.60;78.70
44277;DHT22;29973;43.742;1.236;2024-03-08T14:52:14;15.90;77.20
44277;DHT22;29973;43.742;1.236;2024-03-08T14:54:55;18.30;65.40
44277;DHT22;29973;43.742;1.236;2024-03-08T14:57:22;21.30;58.20
44277;DHT22;29973;43.742;1.236;2024-03-08T14:59:47;23.10;50.20
44277;DHT22;29973;43.742;1.236;2024-03-08T15:02:13;23.90;46.80
44277;DHT22;29973;43.742;1.236;2024-03-08T15:04:39;25.10;43.60
44277;DHT22;29973;43.742;1.236;2024-03-08T15:07:07;24.30;45.90
44277;DHT22;29973;43.742;1.236;2024-03-08T15:09:35;23.70;45.50
44277;DHT22;29973;43.742;1.236;2024-03-08T15:12:06;24.80;45.10
44277;DHT22;29973;43.742;1.236;2024-03-08T15:14:32;23.10;46.30
44277;DHT22;29973;43.742;1.236;2024-03-08T15:16:58;23.10;45.70
44277;DHT22;29973;43.742;1.236;2024-03-08T15:19:24;22.40;48.50
44277;DHT22;29973;43.742;1.236;2024-03-08T15:21:50;22.80;48.40
44277;DHT22;29973;43.742;1.236;2024-03-08T15:24:20;20.50;51.40
44277;DHT22;29973;43.742;1.236;2024-03-08T15:26:47;20.10;51.20
44277;DHT22;29973;43.742;1.236;2024-03-08T15:29:16;22.30;48.40
44277;DHT22;29973;43.742;1.236;2024-03-08T15:31:43;22.80;45.90
44277;DHT22;29973;43.742;1.236;2024-03-08T15:34:09;22.50;47.70
44277;DHT22;29973;43.742;1.236;2024-03-08T15:36:36;20.90;50.80
44277;DHT22;29973;43.742;1.236;2024-03-08T15:39:02;18.20;58.20
44277;DHT22;29973;43.742;1.236;2024-03-08T15:41:35;16.80;64.90
44277;DHT22;29973;43.742;1.236;2024-03-08T15:44:01;18.30;64.50
44277;DHT22;29973;43.742;1.236;2024-03-08T15:46:27;21.50;53.40
44277;DHT22;29973;43.742;1.236;2024-03-08T15:48:53;24.80;46.50
44277;DHT22;29973;43.742;1.236;2024-03-08T15:51:19;23.60;46.10